Aérodrome :
LOGIN :

S'inscrire | Disclaimer

   EN    FR    IT 

 










Légende :    VFR   VFR Marginal   IFR   IFR Intensif   IFR Très Intensif
Visi : 
Plafond : 
>= 8 km
>= 3000ft
5 à 8 km
1000 à 3000 ft
1500m à 5 km
500 à 1000 ft
800 à 1500m
200 à 500 ft
< 800m
< 200 ft
Symboles :   Orages  Brouillard  Fortes neiges  Fortes précipitations  Vent > 20 kt
SIGMETs :   Divers  Orages  Givrage  Turbulence  Onde Orograph.  Cendres Volcan.






- Altitude de l'aérodrome : 21 ft
- Code IATA : VST


ESOW - Stockholm Västerås

DERNIER METAR :
  • 091550Z AUTO 36013KT 9999 DZ FEW005/// SCT007/// OVC011/// 02/01 Q0986 RESHUP REUP

METARs EXPIRÉS :
  • 091520Z 20005KT 9999 SCT010 BKN029 05/03 Q0985 R19/290195
  • 091450Z 20007KT 9999 -RA FEW008 SCT022 BKN040 05/03 Q0985 R19/290195
  • 091420Z 23006KT 190V270 9999 -RA FEW007 BKN021 06/03 Q0984 R19/290195
  • 091350Z 20010KT 9999 -DZ FEW012 BKN023 06/02 Q0984 R19/290195
  • 091320Z 21010KT 9999 SCT025 BKN035 07/02 Q0984 R19/290195

Prévision TAF périmée.



MET'MAP, la Météo Aéronautique d'un coup d'oeil ! - Copyright ORBIFLY Décembre 2007 - Disclaimer

ORBIFLY MET'MAP TEAM :

Programmation & Développement : Alexandra Zaïnal
Sur une idée originale de : Baudouin d'Aumeries
Assistance à la programmation : Marc-Olivier Méhu
Soutien technique & logistique : Manuel Goepfert

Contact : metmap@orbifly.com




SOURCES & CREDITS :

   NOAA